首页
METAR-TAF:

METAR-TAF

机场 :

庫拉索國際機場

库拉索, 荷属安的列斯

纬度: 12-12N, 经度: 068-58W, 海拔: 9米

当前天气观测

该预报发布于35分钟前的21:00 UTC
风速12节,风向
温度 29°C
湿度 74%
气压 1009 hPa
能见度10公里或以上
散云层高于3900英尺

METAR: TNCC 152100Z AUTO 10012KT 9999 SCT039 29/24 Q1009 NOSIG

时间: 17:35 (21:35 UTC)

预报

该预报发布于5小时和35分钟前的16:00 UTC
预报有效从15日的 18点(UTC)到 16日的 18点(UTC)
风速12节,风向
能见度10公里或以上
散云层高于2000英尺
短暂存在
从 15日的 18点(UTC)到 16日的 18点(UTC)
能見度: 7000
多云层高于1500英尺
阵雨
几率 30% :
短暂存在
从 16日的 04点(UTC)到 16日的 18点(UTC)
能見度: 4000
少量云层高于1200英尺, 积雨云.
雷暴, 小雨

TAF: TNCC 151600Z 1518/1618 10012KT 9999 SCT020 TEMPO 1518/1618 7000 SHRA BKN015 PROB30 TEMPO 1604/1618 4000 -TSRA FEW012CB

超过4000个机场的气象观测和天气预报(METAR&TAF报告)。

可查询的气象台以黄色和红色小点在地图上表示。

将鼠标移到小点上方,可查看气象台名称。

然后点击查看天气观测和预报。

如需切换地图:点击带黑十字的绿色按钮放大地图;点击带横线的绿色按钮缩小地图;或者点击绿色箭头查看邻近地区的地图。


METAR-TAF: